Latest Coastal Weather Observations for Tasman Island

IDT60701

Issued at 1:21 am EDT Tuesday 27 January 2015 (issued every 10 minutes, with the page automatically refreshed every 10 minutes)

About coastal observations | Map of coastal stations | Coastal observations for TAS | Marine services | Other Formats
Station Details ID: 094155 Name: TASMAN ISLAND Lat: -43.24 Lon: 148.00 Height: 240.0 m
Data from the previous 72 hours. | See also: Recent months at Tasman Island
Date/Time
EDT
Temp

°C
Wind Pressure Rain
since 9am
mm
Weather Cloud Vis
km
Sea
Height
m
Swell
Dir
 
Speed
knots
Gust
knots
hPa Trend Height
m
Period
s
Dir
27/01:00am 10.4 NW 1 5 1017.3 - 0.2 - - - - - - -
27/12:30am 11.0 NW 3 8 1017.4 - 0.0 - - - - - - -
27/12:00am 11.4 NW 3 9 1017.3 - 0.0 - - - - - - -
 
Date/Time
EDT
Temp

°C
Wind Pressure Rain
since 9am
mm
Weather Cloud Vis
km
Sea
Height
m
Swell
Dir
 
Speed
knots
Gust
knots
hPa Trend Height
m
Period
s
Dir
26/11:30pm 11.4 NW 3 11 1017.3 - 0.0 - - - - - - -
26/11:00pm 11.2 SW 7 13 1017.2 - 0.0 - - - - - - -
26/10:30pm 11.5 WSW 4 11 1017.3 - 0.0 - - - - - - -
26/10:00pm 11.3 SW 5 13 1017.1 - 0.0 - - - - - - -
26/09:30pm 11.0 SW 9 23 1016.4 - 0.0 - - - - - - -
26/09:00pm 11.1 SW 15 25 1016.1 - 0.0 - - - - - - -
26/08:30pm 10.9 SW 17 24 1015.9 - 0.0 - - - - - - -
26/08:00pm 11.3 SSW 12 22 1015.4 - 0.0 - - - - - - -
26/07:31pm 11.8 SW 15 27 1014.9 - 0.0 - - - - - - -
26/07:30pm 11.9 SSW 14 25 1014.9 - 0.0 - - - - - - -
26/07:00pm 12.1 SW 15 26 1014.7 - 0.0 - - - - - - -
26/06:48pm 12.2 SW 15 25 1014.5 - 0.0 - - - - - - -
26/06:30pm 12.3 SW 16 25 1014.3 - 0.0 - - - - - - -
26/06:24pm 12.4 SW 15 25 1014.2 - 0.0 - - - - - - -
26/06:00pm 12.4 SSW 13 24 1014.1 - 0.0 - - - - - - -
26/05:30pm 12.5 SW 17 27 1013.9 - 0.0 - - - - - - -
26/05:09pm 12.4 SSW 15 29 1014.0 - 0.0 - - - - - - -
26/05:00pm 12.9 SSW 11 25 1014.0 - 0.0 - - - - - - -
26/04:30pm 12.3 SSW 11 25 1014.2 - 0.0 - - - - - - -
26/04:13pm 11.9 SW 15 30 1014.0 - 0.0 - - - - - - -
26/04:00pm 12.1 SSW 14 32 1013.7 - 0.0 - - - - - - -
26/03:30pm 12.4 SW 15 29 1013.5 - 0.0 - - - - - - -
26/03:00pm 12.8 SW 16 28 1013.5 - 0.0 - - - - - - -
26/02:30pm 12.4 SW 15 28 1012.9 - 0.0 - - - - - - -
26/02:24pm 13.4 SW 12 27 1013.0 - 0.0 - - - - - - -
26/02:00pm 13.1 WSW 13 25 1013.0 - 0.0 - - - - - - -
26/01:30pm 13.5 WSW 9 20 1013.1 - 0.0 - - - - - - -
26/01:00pm 13.5 SW 10 18 1013.0 - 0.0 - - - - - - -
26/12:30pm 13.2 SW 5 17 1012.8 - 0.0 - - - - - - -
26/12:00pm 12.9 WSW 5 16 1012.4 - 0.0 - - - - - - -
26/11:30am 11.9 NW 5 18 1012.5 - 0.0 - - - - - - -
26/11:00am 10.3 NNW 6 22 1012.5 - 0.0 - - - - - - -
26/10:30am 11.6 W 5 17 1012.1 - 0.0 - - - - - - -
26/10:00am 11.4 W 5 23 1011.9 - 0.0 - - - - - - -
26/09:30am 11.6 NE 4 11 1011.5 - 0.0 - - - - - - -
26/09:00am 11.0 ENE 5 12 1011.1 - 4.2 - - - - - - -
26/08:30am 10.3 WNW 6 17 1010.5 - 4.2 - - - - - - -
26/08:00am 10.1 ENE 6 18 1009.8 - 4.2 - - - - - - -
26/07:30am 9.8 E 5 16 1009.1 - 4.2 - - - - - - -
26/07:00am 9.9 NNW 4 14 1008.6 - 4.2 - - - - - - -
26/06:30am 9.7 SW 7 19 1008.0 - 4.2 - - - - - - -
26/06:00am 9.6 NW 7 19 1007.2 - 4.2 - - - - - - -
26/05:30am 9.4 NW 7 24 1006.4 - 4.2 - - - - - - -
26/05:00am 9.5 NNW 6 22 1006.0 - 4.2 - - - - - - -
26/04:30am 9.6 WNW 8 25 1005.7 - 4.2 - - - - - - -
26/04:00am 9.4 S 6 23 1005.2 - 4.2 - - - - - - -
26/03:30am 9.5 WNW 7 27 1005.2 - 4.2 - - - - - - -
26/03:00am 9.4 NW 7 24 1005.0 - 4.2 - - - - - - -
26/02:30am 9.2 WNW 8 21 1004.5 - 4.2 - - - - - - -
26/02:00am 9.2 WNW 10 26 1004.5 - 4.2 - - - - - - -
26/01:45am 9.1 WNW 14 29 1004.6 - 4.2 - - - - - - -
26/01:44am 9.1 WNW 14 29 1004.6 - 4.2 - - - - - - -
26/01:30am 9.5 NW 6 15 1004.5 - 4.2 - - - - - - -
26/01:00am 9.2 NW 7 25 1004.3 - 4.2 - - - - - - -
26/12:30am 9.3 WNW 5 21 1003.9 - 4.2 - - - - - - -
26/12:00am 9.3 WNW 6 25 1004.0 - 4.2 - - - - - - -
 
Date/Time
EDT
Temp

°C
Wind Pressure Rain
since 9am
mm
Weather Cloud Vis
km
Sea
Height
m
Swell
Dir
 
Speed
knots
Gust
knots
hPa Trend Height
m
Period
s
Dir
25/11:30pm 9.3 SE 5 17 1003.9 - 4.2 - - - - - - -
25/11:00pm 9.3 WSW 5 23 1003.6 - 4.2 - - - - - - -
25/10:30pm 9.5 NE 5 15 1003.4 - 4.2 - - - - - - -
25/10:00pm 9.4 W 6 17 1003.2 - 4.2 - - - - - - -
25/09:30pm 9.4 WNW 5 18 1002.8 - 4.2 - - - - - - -
25/09:00pm 9.7 N 6 17 1002.6 - 4.2 - - - - - - -
25/08:30pm 9.2 NNW 4 21 1002.1 - 4.2 - - - - - - -
25/08:00pm 8.9 WNW 6 17 1001.7 - 4.2 - - - - - - -
25/07:38pm 7.9 WSW 13 38 1001.4 - 4.0 - - - - - - -
25/07:30pm 10.0 WNW 6 19 1001.2 - 4.0 - - - - - - -
25/07:00pm 10.0 E 6 24 1000.7 - 4.0 - - - - - - -
25/06:30pm 10.1 WSW 5 18 1000.6 - 4.0 - - - - - - -
25/06:00pm 10.1 WSW 13 34 999.6 - 4.0 - - - - - - -
25/05:30pm 11.7 NNW 6 24 999.3 - 4.0 - - - - - - -
25/05:00pm 11.3 W 8 21 999.2 - 4.0 - - - - - - -
25/04:30pm 10.5 WSW 10 22 999.3 - 4.0 - - - - - - -
25/04:00pm 9.2 NW 10 24 999.7 - 3.8 - - - - - - -
25/03:30pm 10.1 ESE 5 18 999.5 - 2.6 - - - - - - -
25/03:00pm 11.8 SW 6 14 999.2 - 1.6 - - - - - - -
25/02:30pm 11.0 SSW 13 28 998.8 - 1.6 - - - - - - -
25/02:26pm 11.1 SW 16 28 998.8 - 1.6 - - - - - - -
25/02:00pm 12.3 SSW 12 23 998.6 - 1.6 - - - - - - -
25/01:30pm 12.6 SW 9 17 998.7 - 1.6 - - - - - - -
25/01:00pm 12.6 SW 10 23 998.4 - 1.6 - - - - - - -
25/12:30pm 11.2 SW 11 26 998.2 - 1.6 - - - - - - -
25/12:00pm 12.3 WSW 9 19 998.2 - 1.6 Recent precip. - - - - - -
25/11:30am 11.5 WSW 8 15 997.9 - 1.6 - - - - - - -
25/11:00am 10.7 SW 7 21 997.9 - 1.4 - - - - - - -
25/10:30am 10.1 SW 10 21 997.4 - 1.4 - - - - - - -
25/10:00am 10.4 SW 9 19 998.1 - 1.2 - - - - - - -
25/09:30am 11.0 SW 7 20 997.4 - 0.2 - - - - - - -
25/09:00am 11.6 SSW 13 23 997.4 - 1.8 Recent precip. - - - - - -
25/08:34am 11.1 SSW 15 28 997.4 - 1.8 - - - - - - -
25/08:30am 11.2 SW 12 28 997.6 - 1.8 - - - - - - -
25/08:00am 11.1 SSW 11 20 997.7 - 1.6 - - - - - - -
25/07:30am 11.4 SSW 13 25 997.5 - 1.6 - - - - - - -
25/07:00am 10.7 SW 15 26 997.5 - 1.2 - - - - - - -
25/06:30am 11.3 SSW 15 32 997.3 - 0.2 - - - - - - -
25/06:00am 11.8 SSW 14 29 997.2 - 0.0 - - - - - - -
25/05:38am 12.0 SSW 15 32 996.8 - 0.0 - - - - - - -
25/05:30am 12.5 SSW 12 28 996.8 - 0.0 - - - - - - -
25/05:00am 15.6 WNW 6 12 995.8 - 0.0 - - - - - - -
25/04:30am 15.7 WNW 13 22 995.8 - 0.0 - - - - - - -
25/04:00am 15.5 NW 12 17 995.9 - 0.0 - - - - - - -
25/03:30am 15.7 NW 16 23 996.0 - 0.0 - - - - - - -
25/03:00am 15.2 NW 16 20 996.2 - 0.0 - - - - - - -
25/02:30am 15.4 NW 14 23 996.6 - 0.0 - - - - - - -
25/02:00am 15.3 NW 13 19 997.0 - 0.0 - - - - - - -
25/01:30am 15.4 NW 13 19 997.3 - 0.0 - - - - - - -
25/01:00am 15.5 NW 15 23 997.6 - 0.0 - - - - - - -
25/12:54am 15.1 NNW 11 19 997.6 - 0.0 - - - - - - -
25/12:30am 13.4 E 2 6 997.7 - 0.0 - - - - - - -
25/12:00am 13.4 WSW 3 7 997.9 - 0.0 - - - - - - -
 
Date/Time
EDT
Temp

°C
Wind Pressure Rain
since 9am
mm
Weather Cloud Vis
km
Sea
Height
m
Swell
Dir
 
Speed
knots
Gust
knots
hPa Trend Height
m
Period
s
Dir
24/11:30pm 13.5 NW 6 7 998.5 - 0.0 - - - - - - -
24/11:00pm 13.9 W 6 8 998.6 - 0.0 - - - - - - -
24/10:30pm 13.9 WSW 5 7 998.7 - 0.0 - - - - - - -
24/10:00pm 13.9 SW 6 8 998.8 - 0.0 - - - - - - -
24/09:30pm 14.0 SSW 7 10 998.8 - 0.0 - - - - - - -
24/09:00pm 14.1 SSW 9 12 998.4 - 0.0 - - - - - - -
24/08:30pm 14.6 SSW 9 14 998.3 - 0.0 - - - - - - -
24/08:00pm 15.7 SSW 5 9 998.3 - 0.0 - - - - - - -
24/07:30pm 16.1 SE 6 8 998.1 - 0.0 - - - - - - -
24/07:00pm 16.9 E 3 6 997.8 - 0.0 - - - - - - -
24/06:30pm 18.0 NNE 9 13 997.9 - 0.0 - - - - - - -
24/06:00pm 18.3 NNE 10 14 998.1 - 0.0 - - - - - - -
24/05:30pm 18.2 NNE 11 15 998.6 - 0.0 - - - - - - -
24/05:00pm 17.6 NNE 13 16 999.2 - 0.0 - - - - - - -
24/04:30pm 17.7 NNE 15 20 999.4 - 0.0 - - - - - - -
24/04:00pm 17.6 NNE 15 20 999.8 - 0.0 - - - - - - -
24/03:30pm 17.5 NNE 15 20 1000.2 - 0.0 - - - - - - -
24/03:00pm 17.4 NNE 16 21 1000.5 - 0.0 - - - - - - -
24/02:30pm 17.9 NNE 15 20 1001.0 - 0.0 - - - - - - -
24/02:00pm 17.3 NNE 16 20 1001.2 - 0.0 - - - - - - -
24/01:30pm 17.1 NNE 13 19 1001.8 - 0.0 - - - - - - -
24/01:00pm 17.2 NNE 12 17 1002.2 - 0.0 - - - - - - -
24/12:30pm 17.0 NNE 12 18 1002.9 - 0.0 - - - - - - -
24/12:00pm 16.7 NNE 12 21 1003.1 - 0.0 - - - - - - -
24/11:30am 15.8 NNE 15 24 1003.2 - 0.0 - - - - - - -
24/11:00am 15.9 NNE 16 23 1003.6 - 0.0 - - - - - - -
24/10:30am 15.9 NNE 15 23 1004.0 - 0.0 - - - - - - -
24/10:07am 15.8 NNE 15 26 1004.2 - 0.0 - - - - - - -
24/10:00am 16.1 NNE 11 22 1004.2 - 0.0 - - - - - - -
24/09:30am 14.8 NNE 10 21 1004.5 - 0.0 - - - - - - -
24/09:00am 15.5 NNE 11 24 1004.5 - 0.2 - - - - - - -
24/08:30am 14.8 NNE 12 23 1004.8 - 0.2 - - - - - - -
24/08:00am 14.1 NNE 9 19 1005.2 - 0.2 - - - - - - -
24/07:30am 13.6 NNE 9 21 1005.3 - 0.2 - - - - - - -
24/07:00am 13.2 NE 9 20 1005.1 - 0.2 - - - - - - -
24/06:30am 13.0 NE 7 19 1005.3 - 0.2 - - - - - - -
24/06:00am 12.9 NE 7 20 1005.1 - 0.2 - - - - - - -
24/05:30am 12.8 NE 7 19 1005.2 - 0.2 - - - - - - -
24/05:00am 12.8 NE 7 19 1005.5 - 0.2 - - - - - - -
24/04:30am 12.5 NE 4 13 1005.8 - 0.2 - - - - - - -
24/04:00am 12.5 NE 6 13 1006.2 - 0.2 - - - - - - -
24/03:30am 12.3 NE 5 11 1006.5 - 0.2 - - - - - - -
24/03:00am 12.1 NE 6 15 1006.9 - 0.2 - - - - - - -
24/02:30am 12.3 E 3 7 1007.2 - 0.2 - - - - - - -
24/02:00am 12.0 NNE 1 3 1007.5 - 0.2 - - - - - - -
24/01:30am 12.0 SSE 2 4 1007.4 - 0.2 - - - - - - -

Other Formats:

Comma delimited format used in spreadsheet applications
http://www.bom.gov.au/fwo/IDT60701/IDT60701.95986.axf

JavaScript Object Notation format (JSON) in row-major order
http://www.bom.gov.au/fwo/IDT60701/IDT60701.95986.json